Thursday, June 30, 2016
23:01 UTC
  |  Log In   |  Register Free
Airport Search:

Live Oak County Airport
(8T6)

Live Oak County Airport Diagram
No Airport Diagram Available

FAA data valid effective May 26 2016 - Jul 21 2016 (unless otherwise noted).

 
 
 
 
 
 
 
 
 
 
 
 
 
 
Current Aviation Weather for 8T6

Weather Summary


Current weather conditions are not available for 8T6 - The nearest NOAA weather station is at BEA, (17.2 nm SE from 8T6)

The most recent METAR observation for 8T6 was updated at: 12:55 UTC
METAR for 8T6 is not available. Closest METAR is for KNOG 27.9 nm NW
KNOG  (27.9 nm NW)   (most recent observation was updated at 30:22 UTC)
302256Z AUTO 16010KT 10SM CLR 34/23 A2990 RMK AO2 SLP105 T03440228 $

TAF for 8T6 is not available.
GlobalAir.com is loading additional information.
 Current Weather at BEA
88.0 F° (31.0 C°)

South winds at 5.8 mph
Pressure:
29.91 in
Humidity:
61%
Wind:
South at 5.8 mph
Dew Point:
72.9 F° (22.7 C°)
Visibility:
10.00 mi
8T6 NOAA Radar




Find All Airport Services Find A Hotel Find A Rental Car Find A Golf Course Find A Restaurant $100 Hamburger



Airport Weather Forecast for 8T6

Translated METAR for KBEA (2255 UTC)
METAR:
KBEA 302255Z AUTO 13006KT 10SM CLR 32/24 A2990 RMK AO2 T03210240
Conditions at:
KBEA (Beeville Muni, TX) observed 2255 UTC 30 June 2016
Temperature:
32°C (89.6°F)
Dewpoint:
24°C (75.2°F) [RH = 62.7]
Pressure:
29.9 inches Hg (1012.5 mb)
Winds:
from the SE (130 degrees) at 6.9 mph (6 knots: 3.1 m/s)
Visibility:
10 mile(s)
Ceiling:
at least 12,000 feet AGL
Clouds:
Clear below 12,000 feet AGL
Remarks:
site is un-manned
site is automated and HAS a precipitation sensor

Translated TAF for TAF for 8T6 is not available. Refer to local area forecast.
FBO's on the Field
FBO Company Facility Photos Services Transportation Aviation Fuel Prices: Prices include tax
Catering Weather Repair Courtesy Rental Type 100LL JetA JetA+ MOGAS 8087
 
Live Oak Co. Airport

This FBO has not yet been rated
FS:Avfuel
Last Updated: Jun-16
Login to update fuel prices
SS:
Contact Live Oak Co. AirportMore FBO Information
 
Add another FBO Facility Photos Catering Weather Repair Courtesy Rental Type 100LL JetA JetA+ MOGAS 8087
Services Transportation Aviation Fuel Prices: Prices include tax


model-print
model-print
model-print
model-print